Time;durP1;ratioP1;P1;durP2;ratioP2;P2;SDS_P1;SDS_P2;PMS_P1;PMS_P2;Temp;Humidity;BMP_temperature;BMP_pressure;BME280_temperature;BME280_humidity;BME280_pressure;Samples;Min_cycle;Max_cycle;Signal;HPM_P1;HPM_P2
2022/09/18 00:01:20;;;;;;;4.38;1.58;;;10.90;99.90;;;;;;5052958;28;20025;-69
2022/09/18 00:03:46;;;;;;;1.67;0.80;;;10.90;99.90;;;;;;5052852;28;20029;-70
2022/09/18 00:06:16;;;;;;;1.92;1.10;;;10.90;99.90;;;;;;5052677;28;20029;-69
2022/09/18 00:08:43;;;;;;;3.40;1.23;;;10.90;99.90;;;;;;5065753;28;20195;-70
2022/09/18 00:11:12;;;;;;;1.50;1.40;;;10.90;99.90;;;;;;5052294;28;20036;-70
2022/09/18 00:13:38;;;;;;;1.70;1.02;;;10.90;99.90;;;;;;5052687;28;20083;-70
2022/09/18 00:16:07;;;;;;;1.70;1.10;;;10.90;99.90;;;;;;5052732;28;20391;-70
2022/09/18 00:18:33;;;;;;;3.38;1.60;;;10.90;99.90;;;;;;5052610;28;20021;-70
2022/09/18 00:21:07;;;;;;;1.60;1.00;;;11.00;99.90;;;;;;5053205;28;20636;-70
2022/09/18 00:23:33;;;;;;;1.55;1.30;;;11.00;99.90;;;;;;5052679;28;20028;-70
2022/09/18 00:25:59;;;;;;;1.60;1.23;;;11.00;99.90;;;;;;5052444;28;20055;-70
2022/09/18 00:28:25;;;;;;;1.80;1.30;;;11.00;99.90;;;;;;5051989;28;20033;-70
2022/09/18 00:30:52;;;;;;;2.53;1.40;;;11.00;99.90;;;;;;5051960;28;20036;-70
2022/09/18 00:33:18;;;;;;;5.00;1.10;;;11.00;99.90;;;;;;5054440;28;20504;-70
2022/09/18 00:35:44;;;;;;;3.97;1.63;;;11.00;99.90;;;;;;5052397;28;20025;-70
2022/09/18 00:38:10;;;;;;;2.13;1.30;;;11.10;99.90;;;;;;5051947;28;20483;-70
2022/09/18 00:40:37;;;;;;;3.40;1.20;;;11.10;99.90;;;;;;5065011;28;20028;-70
2022/09/18 00:43:21;;;;;;;1.45;1.15;;;11.10;99.90;;;;;;5038154;28;20051;-69
2022/09/18 00:46:08;;;;;;;1.15;1.00;;;11.10;99.90;;;;;;5078874;28;20028;-69
2022/09/18 00:48:52;;;;;;;2.53;1.50;;;11.10;99.90;;;;;;5083520;28;20036;-68
2022/09/18 00:51:18;;;;;;;2.17;1.40;;;11.10;99.90;;;;;;5074290;28;20020;-69
2022/09/18 00:53:53;;;;;;;2.45;1.30;;;11.10;99.90;;;;;;5070157;28;20095;-69
2022/09/18 00:56:19;;;;;;;4.15;1.52;;;11.10;99.90;;;;;;5071694;28;20436;-70
2022/09/18 00:58:46;;;;;;;3.10;1.45;;;11.10;99.90;;;;;;5074259;28;20021;-69
2022/09/18 01:01:11;;;;;;;1.33;0.98;;;11.10;99.90;;;;;;5066973;28;20036;-69
2022/09/18 01:03:37;;;;;;;4.07;1.10;;;11.10;99.90;;;;;;5067684;28;20120;-69
2022/09/18 01:06:14;;;;;;;1.17;1.08;;;11.10;99.90;;;;;;5070208;28;20040;-68
2022/09/18 01:09:08;;;;;;;2.05;1.45;;;11.20;99.90;;;;;;5065913;28;20036;-69
2022/09/18 01:11:48;;;;;;;2.90;1.58;;;11.20;99.90;;;;;;5070953;28;20036;-69
2022/09/18 01:14:34;;;;;;;3.60;1.23;;;11.20;99.90;;;;;;5064787;28;20086;-70
2022/09/18 01:17:22;;;;;;;1.40;0.90;;;11.20;99.90;;;;;;5068516;28;20391;-69
2022/09/18 01:20:16;;;;;;;4.18;1.63;;;11.20;99.90;;;;;;5051475;28;20031;-68
2022/09/18 01:23:03;;;;;;;1.50;1.10;;;11.20;99.90;;;;;;5075532;28;20027;-69
2022/09/18 01:25:38;;;;;;;2.90;1.60;;;11.20;99.90;;;;;;5070036;28;20032;-69
2022/09/18 01:28:29;;;;;;;3.17;1.40;;;11.20;99.90;;;;;;5068643;28;20047;-68
2022/09/18 01:30:59;;;;;;;2.50;1.42;;;11.20;99.90;;;;;;5068547;28;20085;-68
2022/09/18 01:33:39;;;;;;;2.22;1.23;;;11.20;99.90;;;;;;5068573;28;20545;-69
2022/09/18 01:36:09;;;;;;;2.42;1.25;;;11.10;99.90;;;;;;5070423;28;20115;-69
2022/09/18 01:38:42;;;;;;;1.63;1.42;;;11.10;99.90;;;;;;5063274;28;20025;-69
2022/09/18 01:41:22;;;;;;;2.92;1.45;;;11.10;99.90;;;;;;5065855;28;20023;-69
2022/09/18 01:44:12;;;;;;;4.15;1.60;;;11.00;99.90;;;;;;5088900;28;20028;-69
2022/09/18 01:46:42;;;;;;;4.30;1.40;;;11.00;99.90;;;;;;5067647;28;20064;-69
2022/09/18 01:49:26;;;;;;;4.72;1.73;;;11.00;99.90;;;;;;5068652;28;20059;-69
2022/09/18 01:52:07;;;;;;;3.78;1.40;;;11.00;99.90;;;;;;5067779;28;20028;-69
2022/09/18 01:54:38;;;;;;;2.83;1.35;;;10.90;99.90;;;;;;5068727;28;20025;-68
2022/09/18 01:57:13;;;;;;;6.28;2.20;;;11.00;99.90;;;;;;5051347;28;20082;-69
2022/09/18 01:59:51;;;;;;;5.60;1.67;;;10.90;99.90;;;;;;5067504;28;20051;-69
2022/09/18 02:06:35;;;;;;;5.78;2.88;;;10.90;99.90;;;;;;5429077;22;20520;-69
2022/09/18 02:09:02;;;;;;;4.78;1.70;;;10.90;99.90;;;;;;5052288;28;20490;-69
2022/09/18 02:11:32;;;;;;;2.80;2.13;;;11.00;99.90;;;;;;5052854;28;20089;-69
2022/09/18 02:14:16;;;;;;;1.77;1.25;;;10.90;99.90;;;;;;5052566;28;20048;-69
2022/09/18 02:17:11;;;;;;;5.72;1.63;;;10.90;99.90;;;;;;5052583;28;20368;-69
2022/09/18 02:20:01;;;;;;;3.30;1.90;;;10.90;99.90;;;;;;5052576;28;20562;-69
2022/09/18 02:22:31;;;;;;;2.25;1.05;;;10.90;99.90;;;;;;5048946;28;20016;-69
2022/09/18 02:25:01;;;;;;;3.00;1.65;;;11.00;99.90;;;;;;5068013;28;20498;-69
2022/09/18 02:27:29;;;;;;;1.80;1.45;;;11.00;99.90;;;;;;5052276;28;20027;-69
2022/09/18 02:29:56;;;;;;;4.43;1.52;;;10.90;99.90;;;;;;5052796;28;20024;-69
2022/09/18 02:32:22;;;;;;;2.42;1.40;;;11.00;99.90;;;;;;5052726;28;20029;-69
2022/09/18 02:34:48;;;;;;;2.78;1.10;;;11.00;99.90;;;;;;5073125;28;20107;-69
2022/09/18 02:37:42;;;;;;;3.03;1.33;;;11.00;99.90;;;;;;5056730;28;20025;-69
2022/09/18 02:40:23;;;;;;;2.15;1.30;;;11.00;99.90;;;;;;5056492;28;20119;-69
2022/09/18 02:43:22;;;;;;;1.75;1.48;;;11.00;99.90;;;;;;5061071;28;20078;-69
2022/09/18 02:46:50;;;;;;;3.55;1.55;;;10.90;99.90;;;;;;5073399;28;20037;-69
2022/09/18 02:50:03;;;;;;;1.35;1.20;;;10.90;99.90;;;;;;4977842;28;20026;-69
2022/09/18 02:52:38;;;;;;;1.50;1.00;;;10.90;99.90;;;;;;5009841;28;20516;-69
2022/09/18 02:55:09;;;;;;;1.75;1.45;;;10.90;99.90;;;;;;5002460;28;20034;-69
2022/09/18 02:57:43;;;;;;;3.10;1.60;;;10.90;99.90;;;;;;4992993;28;20030;-69
2022/09/18 03:00:15;;;;;;;2.47;1.42;;;10.90;99.90;;;;;;5012466;28;20026;-69
2022/09/18 03:02:42;;;;;;;2.03;1.40;;;10.80;99.90;;;;;;4995083;28;20038;-69
2022/09/18 03:05:13;;;;;;;1.38;1.27;;;10.70;99.90;;;;;;5001498;28;20050;-69
2022/09/18 03:07:46;;;;;;;1.75;1.20;;;10.70;99.90;;;;;;4996100;28;20058;-69
2022/09/18 03:10:12;;;;;;;2.38;1.30;;;10.70;99.90;;;;;;4992370;28;20038;-68
2022/09/18 03:12:38;;;;;;;3.83;1.55;;;10.70;99.90;;;;;;4984289;28;20484;-68
2022/09/18 03:15:05;;;;;;;4.60;1.27;;;10.60;99.90;;;;;;4995200;28;20026;-69
2022/09/18 03:17:31;;;;;;;4.72;1.40;;;10.60;99.90;;;;;;5014442;28;20030;-68
2022/09/18 03:19:57;;;;;;;2.90;1.52;;;10.50;99.90;;;;;;5010027;28;20043;-69
2022/09/18 03:22:23;;;;;;;2.72;1.52;;;10.50;99.90;;;;;;5014576;28;20053;-68
2022/09/18 03:24:48;;;;;;;2.85;1.38;;;10.50;99.90;;;;;;5043429;28;20037;-69
2022/09/18 03:27:17;;;;;;;3.05;1.60;;;10.40;99.90;;;;;;5036077;28;20029;-69
2022/09/18 03:29:44;;;;;;;2.38;1.27;;;10.30;99.90;;;;;;5042409;28;20032;-69
2022/09/18 03:32:11;;;;;;;2.45;1.55;;;10.40;99.90;;;;;;5033764;28;20031;-69
2022/09/18 03:34:55;;;;;;;3.53;1.45;;;10.40;99.90;;;;;;5035842;28;20082;-69
2022/09/18 03:37:21;;;;;;;3.33;1.50;;;10.30;99.90;;;;;;5035975;28;20029;-69
2022/09/18 03:39:48;;;;;;;6.10;1.33;;;10.30;99.90;;;;;;5025060;28;20053;-69
2022/09/18 03:42:14;;;;;;;8.75;1.85;;;10.30;99.90;;;;;;5030003;28;20083;-69
2022/09/18 03:44:40;;;;;;;3.15;1.58;;;10.30;99.90;;;;;;5024196;28;20033;-69
2022/09/18 03:47:15;;;;;;;4.93;1.98;;;10.20;99.90;;;;;;5018359;28;20025;-68
2022/09/18 03:49:41;;;;;;;5.70;2.20;;;10.20;99.90;;;;;;5033514;28;20026;-69
2022/09/18 03:52:07;;;;;;;6.07;2.42;;;10.10;99.90;;;;;;5015783;28;20025;-68
2022/09/18 03:54:40;;;;;;;3.92;2.20;;;10.10;99.90;;;;;;5034912;28;20120;-69
2022/09/18 03:57:45;;;;;;;3.80;1.90;;;10.00;99.90;;;;;;5053370;28;20363;-68
2022/09/18 04:00:44;;;;;;;1.92;1.73;;;10.00;99.90;;;;;;4974047;28;20026;-69
2022/09/18 04:03:18;;;;;;;3.25;1.65;;;10.00;99.90;;;;;;4962833;28;20493;-69
2022/09/18 04:06:07;;;;;;;2.97;1.67;;;10.00;99.90;;;;;;4986793;28;20419;-69
2022/09/18 04:08:53;;;;;;;2.83;1.30;;;10.10;99.90;;;;;;4991528;28;20034;-69
2022/09/18 04:11:27;;;;;;;2.15;1.58;;;10.10;99.90;;;;;;4974656;28;20100;-69
2022/09/18 04:13:53;;;;;;;2.53;1.55;;;10.10;99.90;;;;;;4991159;28;20432;-69
2022/09/18 04:16:18;;;;;;;2.38;1.25;;;10.10;99.90;;;;;;4974595;28;20041;-69
2022/09/18 04:18:44;;;;;;;3.35;1.60;;;10.10;99.90;;;;;;4974823;28;20046;-69
2022/09/18 04:21:10;;;;;;;2.63;1.25;;;10.20;99.90;;;;;;4974502;28;20066;-69
2022/09/18 04:23:36;;;;;;;3.03;1.73;;;10.20;99.90;;;;;;4973782;28;20046;-69
2022/09/18 04:26:08;;;;;;;3.83;1.60;;;10.30;99.90;;;;;;4990829;28;20120;-69
2022/09/18 04:28:37;;;;;;;4.82;1.58;;;10.30;99.90;;;;;;4973686;28;20465;-69
2022/09/18 04:31:04;;;;;;;4.88;1.92;;;10.30;99.90;;;;;;4990937;28;20552;-68
2022/09/18 04:33:30;;;;;;;4.38;1.30;;;10.30;99.90;;;;;;4990155;28;20026;-69
2022/09/18 04:35:56;;;;;;;1.85;1.48;;;10.30;99.90;;;;;;5011582;28;20373;-69
2022/09/18 04:38:28;;;;;;;4.15;1.50;;;10.40;99.90;;;;;;5034472;28;20120;-70
2022/09/18 04:40:56;;;;;;;3.67;1.40;;;10.30;99.90;;;;;;5050620;28;20034;-69
2022/09/18 04:43:23;;;;;;;3.08;1.50;;;10.40;99.90;;;;;;5051701;28;20485;-68
2022/09/18 04:45:49;;;;;;;7.03;1.73;;;10.30;99.90;;;;;;5047652;28;20037;-68
2022/09/18 04:48:17;;;;;;;4.80;2.00;;;10.60;99.90;;;;;;5034831;28;20017;-68
2022/09/18 04:50:45;;;;;;;2.40;2.03;;;11.40;99.90;;;;;;5034300;28;20113;-68
2022/09/18 04:53:15;;;;;;;4.55;3.30;;;11.90;99.90;;;;;;5033669;28;20394;-68
2022/09/18 04:55:43;;;;;;;4.50;3.13;;;12.00;99.90;;;;;;5034336;28;20049;-68
2022/09/18 04:58:10;;;;;;;4.38;3.20;;;12.40;99.90;;;;;;5033981;28;20032;-68
2022/09/18 05:00:37;;;;;;;3.85;2.83;;;12.90;99.90;;;;;;5033552;28;20402;-68
2022/09/18 05:03:07;;;;;;;4.40;3.08;;;13.20;99.90;;;;;;5051135;28;20036;-67
2022/09/18 05:05:35;;;;;;;6.72;3.20;;;13.60;99.90;;;;;;5042422;28;20044;-67
2022/09/18 05:08:02;;;;;;;8.52;2.72;;;13.80;99.90;;;;;;5052927;28;20044;-66
2022/09/18 05:10:29;;;;;;;6.07;2.72;;;14.20;99.90;;;;;;5070645;28;20028;-66
2022/09/18 05:12:55;;;;;;;4.05;2.85;;;14.20;99.90;;;;;;5060286;28;20032;-68
2022/09/18 05:15:21;;;;;;;5.25;2.90;;;14.90;99.90;;;;;;5054040;28;20049;-66
2022/09/18 05:17:58;;;;;;;6.10;3.17;;;15.00;99.90;;;;;;5053029;28;20017;-68
2022/09/18 05:20:24;;;;;;;4.93;2.92;;;15.00;99.90;;;;;;5069734;28;20040;-66
2022/09/18 05:22:50;;;;;;;3.80;2.67;;;14.90;99.90;;;;;;5053124;28;20034;-66
2022/09/18 05:25:20;;;;;;;4.00;2.88;;;15.10;99.90;;;;;;5053603;28;20501;-67
2022/09/18 05:27:58;;;;;;;4.40;3.13;;;15.40;99.90;;;;;;5053935;28;20856;-67
2022/09/18 05:30:28;;;;;;;3.40;2.40;;;15.50;99.90;;;;;;5053445;28;20025;-68
2022/09/18 05:33:00;;;;;;;3.05;1.83;;;15.70;99.90;;;;;;5053682;28;20025;-68
2022/09/18 05:35:31;;;;;;;4.00;1.40;;;15.70;99.90;;;;;;5053369;28;20032;-68
2022/09/18 05:37:58;;;;;;;3.78;1.60;;;14.90;99.90;;;;;;5071209;28;20115;-68
2022/09/18 05:40:26;;;;;;;5.57;2.13;;;14.20;99.90;;;;;;5053461;28;20108;-68
2022/09/18 05:42:53;;;;;;;3.55;1.70;;;13.70;99.90;;;;;;5053112;28;20101;-67
2022/09/18 05:45:20;;;;;;;4.22;1.80;;;13.40;99.90;;;;;;5053406;28;20094;-66
2022/09/18 05:47:59;;;;;;;6.18;2.35;;;13.30;99.90;;;;;;5053452;28;20024;-67
2022/09/18 05:50:27;;;;;;;4.15;1.83;;;12.90;99.90;;;;;;5053275;28;20029;-67
2022/09/18 05:53:13;;;;;;;3.70;1.70;;;12.80;99.90;;;;;;5071328;28;20423;-66
2022/09/18 05:55:54;;;;;;;2.50;1.65;;;12.80;99.90;;;;;;5053351;28;20036;-66
2022/09/18 05:58:20;;;;;;;4.03;2.30;;;13.00;99.90;;;;;;5051734;28;20505;-66
2022/09/18 06:00:51;;;;;;;3.00;1.88;;;12.80;99.90;;;;;;5053475;28;21539;-68
2022/09/18 06:03:23;;;;;;;5.32;1.98;;;12.80;99.90;;;;;;5053007;28;20040;-67
2022/09/18 06:05:53;;;;;;;2.42;1.63;;;12.90;99.90;;;;;;5052633;28;20443;-67
2022/09/18 06:08:21;;;;;;;4.18;1.88;;;13.00;99.90;;;;;;5068814;28;20028;-67
2022/09/18 06:10:47;;;;;;;4.65;1.75;;;13.00;99.90;;;;;;5065427;28;20450;-67
2022/09/18 06:13:16;;;;;;;3.95;1.83;;;13.10;99.90;;;;;;5062186;28;20445;-67
2022/09/18 06:15:46;;;;;;;4.32;1.95;;;13.00;99.90;;;;;;5051167;28;20455;-67
2022/09/18 06:18:13;;;;;;;1.40;1.20;;;13.10;99.90;;;;;;5057315;28;20073;-67
2022/09/18 06:20:44;;;;;;;3.85;1.60;;;13.20;99.90;;;;;;5053279;28;20031;-67
2022/09/18 06:23:11;;;;;;;1.98;1.42;;;13.30;99.90;;;;;;5050604;28;20024;-67
2022/09/18 06:25:54;;;;;;;1.98;1.50;;;13.30;99.90;;;;;;5053343;28;20120;-67
2022/09/18 06:28:20;;;;;;;3.80;1.65;;;13.40;99.90;;;;;;5070898;28;20025;-67
2022/09/18 06:30:46;;;;;;;1.80;1.40;;;13.50;99.90;;;;;;5052628;28;20024;-67
2022/09/18 06:33:13;;;;;;;3.95;1.83;;;13.50;99.90;;;;;;5070733;28;20025;-64
2022/09/18 06:35:41;;;;;;;3.58;1.77;;;13.70;99.90;;;;;;5052417;28;20040;-64
2022/09/18 06:38:08;;;;;;;2.45;1.52;;;13.90;99.90;;;;;;5052806;28;20079;-69
2022/09/18 06:40:51;;;;;;;3.67;1.50;;;14.10;99.90;;;;;;5051868;28;20535;-67
2022/09/18 06:43:28;;;;;;;4.05;1.80;;;14.20;99.90;;;;;;5053182;28;20386;-68
2022/09/18 06:45:55;;;;;;;3.67;1.60;;;14.30;99.90;;;;;;5070661;28;20045;-68
2022/09/18 06:48:24;;;;;;;2.83;1.35;;;14.30;99.90;;;;;;5052448;28;20013;-67
2022/09/18 06:50:55;;;;;;;2.25;1.30;;;14.40;99.90;;;;;;5050502;28;20553;-66
2022/09/18 06:53:23;;;;;;;2.63;1.60;;;14.40;99.90;;;;;;5051607;28;20044;-69
2022/09/18 06:55:58;;;;;;;2.22;1.50;;;14.50;99.90;;;;;;5052740;28;20025;-68
2022/09/18 06:58:24;;;;;;;6.60;1.30;;;14.60;99.90;;;;;;5052201;28;20047;-69
2022/09/18 07:00:52;;;;;;;4.25;1.45;;;14.70;99.90;;;;;;5052726;28;20420;-69
2022/09/18 07:03:26;;;;;;;1.30;1.10;;;14.80;99.90;;;;;;5050674;28;20031;-68
2022/09/18 07:06:10;;;;;;;1.95;1.10;;;14.90;99.90;;;;;;5069470;28;20055;-67
2022/09/18 07:08:45;;;;;;;4.90;1.25;;;15.00;99.90;;;;;;5039202;28;20016;-67
2022/09/18 07:11:18;;;;;;;2.95;1.40;;;15.10;99.90;;;;;;5051657;28;20035;-67
2022/09/18 07:13:46;;;;;;;3.10;0.90;;;15.20;99.90;;;;;;5064259;28;20021;-68
2022/09/18 07:16:12;;;;;;;3.08;1.23;;;15.10;99.90;;;;;;5055614;28;20563;-68
2022/09/18 07:18:42;;;;;;;1.48;1.15;;;15.20;99.90;;;;;;5069244;28;20028;-68
2022/09/18 07:21:10;;;;;;;2.65;1.35;;;15.40;99.90;;;;;;5054003;28;20142;-67
2022/09/18 07:23:38;;;;;;;1.63;1.35;;;15.50;99.90;;;;;;5054994;28;20039;-68
2022/09/18 07:26:05;;;;;;;1.25;0.90;;;15.70;99.90;;;;;;5055201;28;20032;-67
2022/09/18 07:28:32;;;;;;;1.58;1.30;;;15.70;99.90;;;;;;5060492;28;20078;-68
2022/09/18 07:31:17;;;;;;;0.93;0.70;;;15.80;99.90;;;;;;5060287;28;20085;-68
2022/09/18 07:33:52;;;;;;;1.50;0.90;;;15.80;99.90;;;;;;5055300;28;20063;-68
2022/09/18 07:36:20;;;;;;;5.30;1.00;;;15.70;99.90;;;;;;5055084;28;20474;-69
2022/09/18 07:38:51;;;;;;;3.97;1.25;;;15.80;99.90;;;;;;5055596;28;20024;-69
2022/09/18 07:41:18;;;;;;;3.72;1.38;;;15.90;99.90;;;;;;5055776;28;20056;-69
2022/09/18 07:43:47;;;;;;;1.25;0.93;;;16.00;99.90;;;;;;5073267;28;20028;-68
2022/09/18 07:46:13;;;;;;;3.58;1.45;;;16.00;99.90;;;;;;5054590;28;20040;-68
2022/09/18 07:48:39;;;;;;;1.88;1.10;;;16.10;99.90;;;;;;5055166;28;20728;-68
2022/09/18 07:51:13;;;;;;;2.70;1.13;;;16.10;99.90;;;;;;5054759;28;20078;-68
2022/09/18 07:53:41;;;;;;;2.22;1.80;;;16.10;99.90;;;;;;5055392;28;20498;-68
2022/09/18 07:56:11;;;;;;;3.63;1.38;;;16.20;99.90;;;;;;5055486;28;20028;-68
2022/09/18 07:58:38;;;;;;;3.63;1.73;;;16.20;99.90;;;;;;5054743;28;20024;-68
2022/09/18 08:01:09;;;;;;;2.40;1.43;;;16.20;99.90;;;;;;5061792;28;20423;-68
2022/09/18 08:03:42;;;;;;;3.35;1.17;;;16.30;99.90;;;;;;5055411;28;20547;-68
2022/09/18 08:06:11;;;;;;;4.25;1.92;;;16.10;99.90;;;;;;5072647;28;20063;-69
2022/09/18 08:08:43;;;;;;;2.33;1.35;;;16.20;99.90;;;;;;5040984;28;20044;-69
2022/09/18 08:11:14;;;;;;;2.83;1.27;;;16.30;99.90;;;;;;5055038;28;20489;-68
2022/09/18 08:14:07;;;;;;;1.13;1.00;;;16.50;99.90;;;;;;5062493;28;20033;-70
2022/09/18 08:16:52;;;;;;;2.40;1.48;;;16.60;99.90;;;;;;5064596;28;20393;-69
2022/09/18 08:19:57;;;;;;;5.28;1.23;;;16.70;99.90;;;;;;5054157;28;20032;-69
2022/09/18 08:22:42;;;;;;;3.78;1.40;;;16.70;99.90;;;;;;5073074;28;20516;-69
2022/09/18 08:25:09;;;;;;;2.70;1.40;;;17.00;99.90;;;;;;5054041;28;20021;-68
2022/09/18 08:27:37;;;;;;;1.90;1.30;;;16.90;99.90;;;;;;5054483;28;20119;-69
2022/09/18 08:30:07;;;;;;;2.28;1.48;;;16.80;99.90;;;;;;5053987;28;20029;-69
2022/09/18 08:32:33;;;;;;;1.42;1.00;;;16.90;99.90;;;;;;5053464;28;20532;-69
2022/09/18 08:35:00;;;;;;;2.97;1.50;;;17.20;99.90;;;;;;5072226;28;20028;-68
2022/09/18 08:37:28;;;;;;;2.33;1.25;;;16.90;99.90;;;;;;5049671;28;20429;-69
2022/09/18 08:40:13;;;;;;;2.60;0.80;;;17.00;99.90;;;;;;5063577;28;20072;-70
2022/09/18 08:43:15;;;;;;;1.75;1.00;;;16.90;99.90;;;;;;5070234;28;20055;-69
2022/09/18 08:46:06;;;;;;;1.40;0.93;;;17.20;99.90;;;;;;5053476;28;20044;-69
2022/09/18 08:48:45;;;;;;;1.35;0.75;;;17.30;99.90;;;;;;5049097;28;20503;-67
2022/09/18 08:51:21;;;;;;;2.95;0.70;;;17.30;99.90;;;;;;5056400;28;20027;-67
2022/09/18 08:53:54;;;;;;;1.13;0.88;;;17.50;99.90;;;;;;5071423;28;20080;-68
2022/09/18 08:56:49;;;;;;;0.55;0.55;;;17.60;99.90;;;;;;5053512;28;20704;-68
2022/09/18 08:59:52;;;;;;;0.80;0.63;;;17.40;99.90;;;;;;5052100;28;20056;-70
2022/09/18 09:02:37;;;;;;;0.82;0.80;;;17.30;99.90;;;;;;5053915;28;20040;-69
2022/09/18 09:05:10;;;;;;;2.42;0.90;;;17.40;99.90;;;;;;5071046;28;20049;-68
2022/09/18 09:07:48;;;;;;;2.15;0.95;;;17.50;99.90;;;;;;5055215;28;20094;-69
2022/09/18 09:10:34;;;;;;;4.43;1.00;;;17.50;99.90;;;;;;5066356;28;20609;-70
2022/09/18 09:13:39;;;;;;;2.75;0.98;;;17.60;99.90;;;;;;5047788;28;20025;-69
2022/09/18 09:16:15;;;;;;;2.05;0.68;;;17.60;99.90;;;;;;4998696;28;20038;-69
2022/09/18 09:18:58;;;;;;;1.10;0.55;;;17.60;99.90;;;;;;4974058;28;20076;-69
2022/09/18 09:22:15;;;;;;;1.15;0.65;;;17.60;99.90;;;;;;5002204;28;20088;-69
2022/09/18 09:25:07;;;;;;;3.47;0.63;;;17.50;99.90;;;;;;4950413;29;20028;-69
2022/09/18 09:28:15;;;;;;;1.58;0.73;;;17.50;99.90;;;;;;4935693;29;20506;-70
2022/09/18 09:31:21;;;;;;;3.47;0.73;;;17.70;99.90;;;;;;4893117;29;20377;-69
2022/09/18 09:34:27;;;;;;;3.40;0.80;;;17.80;99.90;;;;;;4890769;29;20044;-68
2022/09/18 09:37:25;;;;;;;0.50;0.50;;;17.80;99.90;;;;;;4864105;29;20041;-69
2022/09/18 09:39:58;;;;;;;0.85;0.50;;;17.80;99.90;;;;;;4891494;29;20044;-68
2022/09/18 09:42:33;;;;;;;1.58;0.70;;;17.90;99.90;;;;;;4876709;29;20044;-66
2022/09/18 09:45:10;;;;;;;0.70;0.70;;;18.00;99.90;;;;;;4873548;29;20140;-66
2022/09/18 09:47:39;;;;;;;2.97;0.80;;;18.00;99.90;;;;;;4888960;29;20055;-66
2022/09/18 09:50:12;;;;;;;1.08;0.90;;;18.10;99.90;;;;;;4896174;29;20511;-66
2022/09/18 09:52:41;;;;;;;1.35;0.90;;;18.30;99.90;;;;;;4912862;29;20111;-65
2022/09/18 09:55:12;;;;;;;1.58;0.82;;;18.20;99.90;;;;;;4896286;29;20036;-67
2022/09/18 09:57:52;;;;;;;1.30;0.77;;;18.20;99.90;;;;;;4898949;29;20035;-67
2022/09/18 10:00:19;;;;;;;2.17;0.70;;;18.30;99.90;;;;;;4933034;29;20031;-66
2022/09/18 10:02:55;;;;;;;1.83;0.80;;;18.20;99.90;;;;;;4974273;28;20046;-67
2022/09/18 10:05:23;;;;;;;1.35;1.10;;;18.20;99.90;;;;;;5025773;28;20049;-66
2022/09/18 10:08:06;;;;;;;7.38;1.20;;;18.20;99.90;;;;;;5052202;28;20548;-67
2022/09/18 10:10:51;;;;;;;0.90;0.55;;;18.30;99.90;;;;;;5037813;28;20545;-67
2022/09/18 10:13:32;;;;;;;0.77;0.70;;;18.40;99.90;;;;;;5043900;28;20429;-67
2022/09/18 10:16:07;;;;;;;6.10;0.98;;;18.50;99.90;;;;;;5052071;28;20540;-67
2022/09/18 10:18:39;;;;;;;1.27;0.80;;;18.70;99.90;;;;;;5052579;28;20019;-67
2022/09/18 10:21:09;;;;;;;1.10;0.55;;;18.60;99.90;;;;;;5043160;28;20124;-68
2022/09/18 10:23:38;;;;;;;1.02;0.70;;;18.70;99.90;;;;;;5053992;28;20063;-67
2022/09/18 10:26:05;;;;;;;1.45;0.80;;;18.70;99.90;;;;;;5052075;28;20079;-68
2022/09/18 10:28:32;;;;;;;0.90;0.60;;;18.60;99.90;;;;;;5052197;28;20025;-67
2022/09/18 10:31:16;;;;;;;0.80;0.50;;;18.40;99.90;;;;;;5051876;28;20082;-67
2022/09/18 10:33:51;;;;;;;1.10;0.60;;;18.50;99.90;;;;;;5052853;28;20024;-67
2022/09/18 10:36:34;;;;;;;0.98;0.75;;;18.30;99.90;;;;;;5052015;28;20039;-66
2022/09/18 10:39:17;;;;;;;0.50;0.50;;;18.50;99.90;;;;;;5053081;28;20532;-67
2022/09/18 10:41:44;;;;;;;1.42;0.60;;;18.60;99.90;;;;;;5048200;28;20479;-67
2022/09/18 10:44:39;;;;;;;0.52;0.52;;;18.60;99.90;;;;;;5033243;28;20550;-67
2022/09/18 10:47:36;;;;;;;2.05;0.65;;;18.50;99.90;;;;;;5052053;28;20115;-69
2022/09/18 10:50:05;;;;;;;3.17;0.93;;;18.60;99.90;;;;;;5068548;28;20029;-67
2022/09/18 10:52:42;;;;;;;0.80;0.45;;;18.40;99.90;;;;;;5051871;28;20055;-68
2022/09/18 10:55:29;;;;;;;1.48;1.05;;;18.50;99.90;;;;;;5053895;28;20039;-68
2022/09/18 10:58:03;;;;;;;0.82;0.70;;;18.60;99.90;;;;;;5055740;28;20538;-67
2022/09/18 11:00:39;;;;;;;0.57;0.57;;;18.50;99.90;;;;;;5071721;28;20036;-68
2022/09/18 11:03:27;;;;;;;1.63;0.52;;;18.50;99.90;;;;;;5074311;28;20486;-68
2022/09/18 11:06:01;;;;;;;1.48;0.75;;;18.80;99.90;;;;;;5072426;28;20519;-68
2022/09/18 11:08:32;;;;;;;0.75;0.52;;;18.90;99.90;;;;;;5044445;28;20104;-68
2022/09/18 11:11:26;;;;;;;1.95;0.50;;;18.80;99.90;;;;;;5056080;28;20028;-68
2022/09/18 11:14:14;;;;;;;0.60;0.60;;;18.90;99.90;;;;;;4956242;28;20066;-68
2022/09/18 11:16:56;;;;;;;1.73;0.50;;;18.90;99.90;;;;;;4971993;28;20034;-68
2022/09/18 11:19:31;;;;;;;2.08;0.85;;;19.20;99.90;;;;;;4972202;28;20804;-68
2022/09/18 11:22:01;;;;;;;2.00;0.73;;;19.10;99.90;;;;;;4971523;28;20066;-68
2022/09/18 11:24:33;;;;;;;1.65;0.90;;;19.30;99.90;;;;;;4961375;28;20130;-68
2022/09/18 11:27:21;;;;;;;0.70;0.60;;;19.30;99.90;;;;;;4970290;28;20030;-69
2022/09/18 11:29:49;;;;;;;0.50;0.50;;;19.40;99.90;;;;;;4972660;28;20054;-68
2022/09/18 11:32:21;;;;;;;0.75;0.68;;;19.40;99.90;;;;;;4958088;28;20035;-67
2022/09/18 11:34:52;;;;;;;0.80;0.70;;;19.40;99.90;;;;;;4988275;28;20025;-67
2022/09/18 11:37:38;;;;;;;1.10;0.77;;;19.40;99.90;;;;;;4961573;28;20058;-68
2022/09/18 11:40:16;;;;;;;0.90;0.50;;;19.50;99.90;;;;;;4972172;28;20031;-67
2022/09/18 11:42:45;;;;;;;0.90;0.70;;;19.40;99.90;;;;;;4972452;28;20077;-67
2022/09/18 11:45:30;;;;;;;2.17;0.80;;;19.40;99.90;;;;;;4971691;28;20046;-66
2022/09/18 11:48:10;;;;;;;2.15;0.52;;;19.60;99.90;;;;;;4955695;28;20065;-67
2022/09/18 11:50:37;;;;;;;2.08;0.65;;;19.40;99.90;;;;;;5013117;28;20041;-68
2022/09/18 11:53:14;;;;;;;1.85;0.60;;;19.30;99.90;;;;;;5055479;28;20025;-68
2022/09/18 11:56:06;;;;;;;2.47;0.50;;;18.60;99.90;;;;;;5073162;28;20024;-67
2022/09/18 11:58:48;;;;;;;0.40;0.40;;;18.60;99.90;;;;;;5054144;28;20060;-67
2022/09/18 12:01:33;;;;;;;0.40;0.40;;;18.90;99.90;;;;;;5055098;28;20493;-68
2022/09/18 12:04:05;;;;;;;0.40;0.40;;;19.20;99.90;;;;;;5072846;28;20108;-66
2022/09/18 12:06:52;;;;;;;0.52;0.32;;;19.50;99.90;;;;;;5052551;28;20139;-67
2022/09/18 12:09:48;;;;;;;0.65;0.50;;;19.50;99.90;;;;;;5051302;28;20543;-67
2022/09/18 12:12:36;;;;;;;1.55;0.30;;;19.60;99.90;;;;;;5053582;28;20115;-66
2022/09/18 12:15:07;;;;;;;1.40;0.25;;;19.60;99.90;;;;;;5070113;28;20020;-67
2022/09/18 12:17:45;;;;;;;3.33;0.60;;;19.40;99.90;;;;;;5053630;28;20043;-67
2022/09/18 12:20:41;;;;;;;2.42;1.10;;;19.20;99.90;;;;;;5051205;28;20062;-66
2022/09/18 12:23:22;;;;;;;1.65;0.85;;;19.20;99.90;;;;;;5059331;28;20044;-68
2022/09/18 12:26:07;;;;;;;3.25;0.85;;;19.10;99.90;;;;;;5057384;28;20648;-66
2022/09/18 12:29:38;;;;;;;4.38;1.02;;;18.90;99.90;;;;;;5050600;28;20021;-67
2022/09/18 12:32:19;;;;;;;0.75;0.45;;;18.80;99.90;;;;;;5013475;28;20152;-67
2022/09/18 12:35:24;;;;;;;1.25;0.50;;;18.80;99.90;;;;;;5007898;28;20048;-67
2022/09/18 12:38:20;;;;;;;1.15;0.50;;;19.00;99.90;;;;;;5012942;28;20123;-67
2022/09/18 12:41:23;;;;;;;0.63;0.55;;;19.20;99.90;;;;;;5009513;28;20030;-66
2022/09/18 12:44:23;;;;;;;0.75;0.50;;;19.10;99.90;;;;;;5006610;28;20117;-68
2022/09/18 12:47:24;;;;;;;0.52;0.40;;;18.90;99.90;;;;;;5009112;28;20033;-68
2022/09/18 12:50:07;;;;;;;0.73;0.50;;;18.60;99.90;;;;;;5008092;28;20034;-68
2022/09/18 12:52:32;;;;;;;;;;;18.80;99.90;;;;;;5004083;28;20046;-68
2022/09/18 12:55:23;;;;;;;0.93;0.40;;;18.60;99.90;;;;;;5012572;28;19909;-68
2022/09/18 12:58:26;;;;;;;0.98;0.52;;;18.80;99.90;;;;;;5010336;28;20046;-68
2022/09/18 13:00:53;;;;;;;1.48;0.55;;;19.00;99.90;;;;;;4989685;28;20044;-68
2022/09/18 13:03:28;;;;;;;1.02;0.40;;;19.10;99.90;;;;;;5007579;28;20583;-68
2022/09/18 13:05:57;;;;;;;0.85;0.50;;;19.20;99.90;;;;;;5037806;28;20048;-67
2022/09/18 13:08:41;;;;;;;0.50;0.40;;;19.20;99.90;;;;;;5084825;28;20024;-67
2022/09/18 13:11:31;;;;;;;1.80;0.50;;;19.10;99.90;;;;;;5073041;28;20368;-68
2022/09/18 13:14:02;;;;;;;0.40;0.35;;;19.10;99.90;;;;;;5069221;28;20036;-69
2022/09/18 13:16:44;;;;;;;1.08;0.45;;;19.10;99.90;;;;;;5049255;28;20483;-68
2022/09/18 13:19:24;;;;;;;0.77;0.70;;;19.20;99.90;;;;;;5070868;28;20056;-69
2022/09/18 13:21:51;;;;;;;0.88;0.60;;;19.10;99.90;;;;;;5072085;28;20075;-69
2022/09/18 13:24:33;;;;;;;0.85;0.50;;;19.00;99.90;;;;;;5067095;28;20052;-68
2022/09/18 13:27:03;;;;;;;0.30;0.30;;;19.00;99.90;;;;;;5064771;28;20546;-67
2022/09/18 13:29:52;;;;;;;0.40;0.40;;;19.10;99.90;;;;;;5072786;28;20089;-67
2022/09/18 13:32:29;;;;;;;3.20;0.40;;;19.10;99.90;;;;;;5072018;28;20028;-68
2022/09/18 13:34:58;;;;;;;0.90;0.75;;;19.20;99.90;;;;;;5067515;28;20115;-68
2022/09/18 13:37:25;;;;;;;0.40;0.30;;;19.20;99.90;;;;;;5047698;28;20026;-68